createdAt,value
2022-09-17T00:01:05.132Z,92.49
2022-09-17T00:03:33.853Z,93.58
2022-09-17T00:06:12.688Z,94.01
2022-09-17T00:08:41.319Z,94.18
2022-09-17T00:11:14.032Z,95.01
2022-09-17T00:13:42.766Z,95.39
2022-09-17T00:16:10.596Z,94.94
2022-09-17T00:18:40.734Z,95.01
2022-09-17T00:21:16.932Z,95.75
2022-09-17T00:23:44.501Z,95.00
2022-09-17T00:26:11.547Z,95.15
2022-09-17T00:28:38.538Z,94.52
2022-09-17T00:31:09.776Z,94.47
2022-09-17T00:33:36.938Z,95.50
2022-09-17T00:36:05.175Z,95.45
2022-09-17T00:38:32.499Z,94.98
2022-09-17T00:40:59.573Z,94.23
2022-09-17T00:43:40.750Z,93.00
2022-09-17T00:46:39.182Z,94.34
2022-09-17T00:49:14.830Z,94.91
2022-09-17T00:52:06.193Z,95.47
2022-09-17T00:54:33.569Z,95.91
2022-09-17T00:57:00.262Z,96.82
2022-09-17T00:59:27.135Z,97.70
2022-09-17T01:01:53.941Z,97.51
2022-09-17T01:04:26.006Z,97.88
2022-09-17T01:07:11.563Z,96.58
2022-09-17T01:09:41.170Z,98.01
2022-09-17T01:12:10.703Z,96.80
2022-09-17T01:14:57.424Z,96.59
2022-09-17T01:17:39.571Z,96.32
2022-09-17T01:20:12.301Z,97.66
2022-09-17T01:22:54.221Z,96.56
2022-09-17T01:25:25.138Z,97.54
2022-09-17T01:28:45.569Z,97.74
2022-09-17T01:31:30.838Z,96.48
2022-09-17T01:34:01.557Z,96.94
2022-09-17T01:36:28.228Z,95.97
2022-09-17T01:39:07.635Z,96.86
2022-09-17T01:41:44.099Z,97.21
2022-09-17T01:44:20.596Z,98.11
2022-09-17T01:46:53.380Z,98.54
2022-09-17T01:49:25.474Z,100.00
2022-09-17T01:51:54.884Z,100.00
2022-09-17T01:54:27.842Z,100.00
2022-09-17T01:57:14.599Z,100.00
2022-09-17T02:00:06.841Z,100.00
2022-09-17T02:02:39.660Z,100.00
2022-09-17T02:05:16.567Z,100.00
2022-09-17T02:07:55.996Z,100.00
2022-09-17T02:10:29.153Z,100.00
2022-09-17T02:13:08.266Z,100.00
2022-09-17T02:15:43.789Z,100.00
2022-09-17T02:18:25.174Z,100.00
2022-09-17T02:21:15.553Z,100.00
2022-09-17T02:23:50.785Z,100.00
2022-09-17T02:26:20.723Z,100.00
2022-09-17T02:28:57.092Z,100.00
2022-09-17T02:31:23.993Z,100.00
2022-09-17T02:33:57.230Z,99.91
2022-09-17T02:36:25.069Z,99.76
2022-09-17T02:39:01.640Z,100.00
2022-09-17T02:41:56.643Z,100.00
2022-09-17T02:44:41.090Z,100.00
2022-09-17T02:47:38.096Z,100.00
2022-09-17T02:50:36.296Z,100.00
2022-09-17T02:53:19.983Z,100.00
2022-09-17T02:56:09.166Z,100.00
2022-09-17T02:58:49.763Z,100.00
2022-09-17T03:01:25.899Z,100.00
2022-09-17T03:03:56.319Z,100.00
2022-09-17T03:06:23.689Z,100.00
2022-09-17T03:08:51.043Z,100.00
2022-09-17T03:11:17.871Z,100.00
2022-09-17T03:13:44.674Z,100.00
2022-09-17T03:16:11.469Z,100.00
2022-09-17T03:18:38.210Z,100.00
2022-09-17T03:21:04.953Z,100.00
2022-09-17T03:23:32.872Z,100.00
2022-09-17T03:25:59.709Z,100.00
2022-09-17T03:28:26.661Z,100.00
2022-09-17T03:30:53.811Z,100.00
2022-09-17T03:33:20.591Z,100.00
2022-09-17T03:35:47.493Z,100.00
2022-09-17T03:38:14.855Z,100.00
2022-09-17T03:40:41.646Z,100.00
2022-09-17T03:43:08.866Z,100.00
2022-09-17T03:45:35.541Z,100.00
2022-09-17T03:48:02.474Z,100.00
2022-09-17T03:50:29.256Z,100.00
2022-09-17T03:52:55.977Z,100.00
2022-09-17T03:55:22.671Z,100.00
2022-09-17T03:57:49.618Z,100.00
2022-09-17T04:00:17.471Z,100.00
2022-09-17T04:02:44.678Z,100.00
2022-09-17T04:05:11.803Z,100.00
2022-09-17T04:07:40.778Z,100.00
2022-09-17T04:10:08.670Z,100.00
2022-09-17T04:12:35.387Z,100.00
2022-09-17T04:15:02.314Z,100.00
2022-09-17T04:17:29.004Z,100.00
2022-09-17T04:19:55.724Z,100.00
2022-09-17T04:22:22.452Z,100.00
2022-09-17T04:24:49.323Z,100.00
2022-09-17T04:27:16.255Z,100.00
2022-09-17T04:29:42.980Z,100.00
2022-09-17T04:32:09.712Z,99.62
2022-09-17T04:34:36.887Z,100.00
2022-09-17T04:37:03.574Z,100.00
2022-09-17T04:39:30.252Z,100.00
2022-09-17T04:41:56.954Z,100.00
2022-09-17T04:44:23.698Z,100.00
2022-09-17T04:46:50.490Z,100.00
2022-09-17T04:49:17.208Z,100.00
2022-09-17T04:51:43.960Z,100.00
2022-09-17T04:54:10.633Z,100.00
2022-09-17T04:56:37.297Z,100.00
2022-09-17T04:59:04.034Z,100.00
2022-09-17T05:01:30.693Z,100.00
2022-09-17T05:03:57.484Z,100.00
2022-09-17T05:06:24.319Z,100.00
2022-09-17T05:08:51.095Z,100.00
2022-09-17T05:11:17.879Z,100.00
2022-09-17T05:13:44.544Z,100.00
2022-09-17T05:16:11.835Z,100.00
2022-09-17T05:18:38.642Z,100.00
2022-09-17T05:21:05.490Z,100.00
2022-09-17T05:23:32.177Z,100.00
2022-09-17T05:26:00.393Z,100.00
2022-09-17T05:28:28.052Z,100.00
2022-09-17T05:30:54.850Z,100.00
2022-09-17T05:33:21.684Z,100.00
2022-09-17T05:35:48.402Z,100.00
2022-09-17T05:38:15.116Z,100.00
2022-09-17T05:40:41.796Z,100.00
2022-09-17T05:43:09.851Z,100.00
2022-09-17T05:45:38.144Z,100.00
2022-09-17T05:48:07.432Z,100.00
2022-09-17T05:50:34.449Z,100.00
2022-09-17T05:53:10.748Z,100.00
2022-09-17T05:55:37.661Z,100.00
2022-09-17T05:58:15.807Z,100.00
2022-09-17T06:00:43.279Z,100.00
2022-09-17T06:03:15.670Z,100.00
2022-09-17T06:05:43.065Z,100.00
2022-09-17T06:08:10.016Z,100.00
2022-09-17T06:10:38.602Z,100.00
2022-09-17T06:13:05.760Z,100.00
2022-09-17T06:15:32.476Z,100.00
2022-09-17T06:17:59.109Z,100.00
2022-09-17T06:20:25.777Z,100.00
2022-09-17T06:22:59.007Z,100.00
2022-09-17T06:25:26.712Z,100.00
2022-09-17T06:27:53.364Z,100.00
2022-09-17T06:30:20.072Z,100.00
2022-09-17T06:32:46.869Z,100.00
2022-09-17T06:35:13.564Z,100.00
2022-09-17T06:37:40.916Z,100.00
2022-09-17T06:40:09.027Z,100.00
2022-09-17T06:42:35.825Z,99.04
2022-09-17T06:45:07.996Z,98.04
2022-09-17T06:47:36.261Z,96.95
2022-09-17T06:50:03.053Z,97.00
2022-09-17T06:52:29.682Z,94.53
2022-09-17T06:54:56.596Z,97.89
2022-09-17T06:57:23.495Z,98.67
2022-09-17T06:59:50.283Z,96.09
2022-09-17T07:02:17.034Z,92.01
2022-09-17T07:04:43.766Z,87.73
2022-09-17T07:07:10.547Z,91.34
2022-09-17T07:09:37.225Z,91.53
2022-09-17T07:12:07.965Z,87.79
2022-09-17T07:14:34.695Z,89.52
2022-09-17T07:17:01.342Z,88.46
2022-09-17T07:19:28.030Z,90.45
2022-09-17T07:21:54.648Z,88.92
2022-09-17T07:24:21.591Z,92.56
2022-09-17T07:26:49.608Z,93.45
2022-09-17T07:29:16.328Z,88.65
2022-09-17T07:31:43.277Z,85.93
2022-09-17T07:34:10.511Z,89.34
2022-09-17T07:36:37.162Z,88.32
2022-09-17T07:39:03.863Z,89.67
2022-09-17T07:41:30.580Z,91.24
2022-09-17T07:43:57.308Z,87.07
2022-09-17T07:46:24.188Z,85.71
2022-09-17T07:48:51.823Z,83.06
2022-09-17T07:51:23.842Z,81.88
2022-09-17T07:53:55.038Z,83.41
2022-09-17T07:56:23.265Z,79.71
2022-09-17T07:58:50.728Z,79.73
2022-09-17T08:01:18.359Z,80.50
2022-09-17T08:03:49.796Z,78.74
2022-09-17T08:06:20.117Z,78.76
2022-09-17T08:08:47.080Z,77.18
2022-09-17T08:11:38.216Z,77.45
2022-09-17T08:14:07.515Z,77.66
2022-09-17T08:16:34.603Z,78.66
2022-09-17T08:19:02.131Z,77.02
2022-09-17T08:21:28.780Z,77.18
2022-09-17T08:23:55.534Z,74.49
2022-09-17T08:26:23.570Z,75.85
2022-09-17T08:28:55.656Z,74.26
2022-09-17T08:31:24.680Z,75.14
2022-09-17T08:33:51.490Z,73.34
2022-09-17T08:36:19.926Z,75.18
2022-09-17T08:38:47.200Z,76.20
2022-09-17T08:41:36.545Z,77.07
2022-09-17T08:44:22.386Z,77.83
2022-09-17T08:47:06.537Z,76.37
2022-09-17T08:49:43.165Z,77.27
2022-09-17T08:52:31.341Z,78.01
2022-09-17T08:55:22.287Z,78.86
2022-09-17T08:57:58.243Z,80.59
2022-09-17T09:00:26.549Z,78.73
2022-09-17T09:03:14.496Z,78.03
2022-09-17T09:05:46.257Z,77.80
2022-09-17T09:08:37.254Z,79.91
2022-09-17T09:11:13.743Z,79.95
2022-09-17T09:13:49.130Z,79.19
2022-09-17T09:16:19.686Z,80.39
2022-09-17T09:18:52.060Z,81.02
2022-09-17T09:21:38.116Z,77.89
2022-09-17T09:24:24.664Z,78.56
2022-09-17T09:26:59.697Z,78.58
2022-09-17T09:29:57.592Z,77.67
2022-09-17T09:32:49.223Z,78.79
2022-09-17T09:35:39.517Z,78.43
2022-09-17T09:38:35.693Z,78.75
2022-09-17T09:41:20.207Z,77.07
2022-09-17T09:44:09.483Z,77.28
2022-09-17T09:46:55.051Z,76.00
2022-09-17T09:49:36.677Z,78.06
2022-09-17T09:53:05.486Z,77.70
2022-09-17T09:55:52.846Z,77.95
2022-09-17T09:58:36.490Z,77.40
2022-09-17T10:01:11.421Z,76.74
2022-09-17T10:03:46.047Z,76.33
2022-09-17T10:06:14.948Z,77.85
2022-09-17T10:09:03.138Z,78.25
2022-09-17T10:11:35.159Z,78.59
2022-09-17T10:14:28.637Z,77.09
2022-09-17T10:17:17.045Z,77.77
2022-09-17T10:19:45.034Z,77.80
2022-09-17T10:22:24.802Z,75.88
2022-09-17T10:24:53.216Z,76.14
2022-09-17T10:27:22.700Z,75.65
2022-09-17T10:29:55.454Z,74.42
2022-09-17T10:32:23.262Z,75.13
2022-09-17T10:35:25.528Z,75.81
2022-09-17T10:37:53.737Z,76.08
2022-09-17T10:40:20.416Z,76.84
2022-09-17T10:43:11.321Z,79.02
2022-09-17T10:45:43.472Z,79.88
2022-09-17T10:48:20.496Z,81.36
2022-09-17T10:50:53.408Z,81.69
2022-09-17T10:53:23.448Z,81.89
2022-09-17T10:55:55.007Z,81.97
2022-09-17T10:58:33.810Z,83.35
2022-09-17T11:01:24.988Z,83.94
2022-09-17T11:04:06.693Z,83.40
2022-09-17T11:06:51.075Z,82.40
2022-09-17T11:09:51.672Z,82.82
2022-09-17T11:12:36.371Z,84.19
2022-09-17T11:15:38.423Z,83.99
2022-09-17T11:18:23.529Z,83.00
2022-09-17T11:20:59.261Z,84.11
2022-09-17T11:24:10.184Z,84.23
2022-09-17T11:26:51.272Z,82.69
2022-09-17T11:29:46.021Z,81.73
2022-09-17T11:32:24.753Z,82.95
2022-09-17T11:35:04.070Z,82.50
2022-09-17T11:37:59.621Z,81.94
2022-09-17T11:40:48.352Z,82.95
2022-09-17T11:43:30.709Z,80.60
2022-09-17T11:46:07.869Z,79.35
2022-09-17T11:48:46.590Z,80.53
2022-09-17T11:51:25.969Z,78.47
2022-09-17T11:54:31.326Z,79.06
2022-09-17T11:57:11.337Z,78.53
2022-09-17T12:00:01.572Z,78.09
2022-09-17T12:02:38.989Z,77.01
2022-09-17T12:05:14.481Z,78.43
2022-09-17T12:08:30.993Z,79.43
2022-09-17T12:11:22.932Z,78.64
2022-09-17T12:13:53.569Z,78.41
2022-09-17T12:16:39.105Z,79.88
2022-09-17T12:19:17.813Z,78.66
2022-09-17T12:21:49.029Z,79.68
2022-09-17T12:24:24.489Z,79.59
2022-09-17T12:27:06.864Z,78.56
2022-09-17T12:30:01.532Z,79.78
2022-09-17T12:32:34.350Z,80.51
2022-09-17T12:35:19.730Z,77.54
2022-09-17T12:38:11.667Z,73.82
2022-09-17T12:41:06.025Z,72.47
2022-09-17T12:43:45.056Z,71.09
2022-09-17T12:46:35.509Z,70.79
2022-09-17T12:49:19.106Z,71.66
2022-09-17T12:51:59.879Z,72.13
2022-09-17T12:54:45.139Z,71.64
2022-09-17T12:57:42.614Z,71.79
2022-09-17T13:00:14.926Z,73.43
2022-09-17T13:02:53.816Z,73.02
2022-09-17T13:05:36.352Z,74.97
2022-09-17T13:08:18.720Z,75.89
2022-09-17T13:11:12.172Z,76.62
2022-09-17T13:14:24.455Z,75.20
2022-09-17T13:17:05.052Z,75.95
2022-09-17T13:19:58.853Z,76.74
2022-09-17T13:22:30.006Z,77.80
2022-09-17T13:25:09.410Z,77.44
2022-09-17T13:27:38.296Z,77.79
2022-09-17T13:30:07.408Z,74.81
2022-09-17T13:32:38.892Z,73.65
2022-09-17T13:35:11.656Z,75.24
2022-09-17T13:38:07.951Z,70.75
2022-09-17T13:40:36.730Z,71.15
2022-09-17T13:43:09.651Z,72.25
2022-09-17T13:45:59.469Z,69.06
2022-09-17T13:48:34.307Z,69.21
2022-09-17T13:51:32.215Z,67.83
2022-09-17T13:54:01.755Z,68.30
2022-09-17T13:56:49.630Z,68.08
2022-09-17T13:59:25.597Z,68.29
2022-09-17T14:01:59.682Z,66.85
2022-09-17T14:04:41.663Z,65.48
2022-09-17T14:07:23.656Z,67.37
2022-09-17T14:09:54.402Z,67.17
2022-09-17T14:12:52.241Z,67.24
2022-09-17T14:15:40.798Z,67.24
2022-09-17T14:18:32.110Z,65.97
2022-09-17T14:21:09.489Z,65.74
2022-09-17T14:23:44.287Z,64.75
2022-09-17T14:26:42.563Z,64.56
2022-09-17T14:29:43.724Z,62.62
2022-09-17T14:32:16.763Z,61.88
2022-09-17T14:34:43.633Z,64.06
2022-09-17T14:37:18.246Z,64.37
2022-09-17T14:39:46.473Z,65.09
2022-09-17T14:42:19.067Z,65.73
2022-09-17T14:44:57.049Z,65.33
2022-09-17T14:47:26.548Z,67.21
2022-09-17T14:49:53.640Z,64.04
2022-09-17T14:52:32.065Z,65.92
2022-09-17T14:55:20.089Z,63.18
2022-09-17T14:58:02.435Z,65.54
2022-09-17T15:00:35.392Z,65.65
2022-09-17T15:03:02.151Z,65.19
2022-09-17T15:05:42.452Z,64.34
2022-09-17T15:08:17.023Z,65.37
2022-09-17T15:10:56.524Z,65.81
2022-09-17T15:13:26.734Z,66.17
2022-09-17T15:16:03.180Z,65.59
2022-09-17T15:18:38.333Z,66.92
2022-09-17T15:21:11.810Z,68.13
2022-09-17T15:23:39.017Z,67.65
2022-09-17T15:26:06.457Z,67.66
2022-09-17T15:28:38.692Z,69.55
2022-09-17T15:31:10.215Z,69.89
2022-09-17T15:33:37.372Z,68.06
2022-09-17T15:36:22.996Z,68.67
2022-09-17T15:38:50.982Z,69.98
2022-09-17T15:41:32.184Z,69.92
2022-09-17T15:44:30.313Z,69.98
2022-09-17T15:47:37.009Z,68.61
2022-09-17T15:50:17.115Z,68.76
2022-09-17T15:52:44.141Z,66.31
2022-09-17T15:55:30.800Z,69.08
2022-09-17T15:57:59.821Z,66.32
2022-09-17T16:00:27.099Z,66.96
2022-09-17T16:02:54.799Z,68.78
2022-09-17T16:05:24.520Z,67.37
2022-09-17T16:07:51.764Z,66.68
2022-09-17T16:10:20.495Z,67.85
2022-09-17T16:12:49.966Z,65.95
2022-09-17T16:15:17.707Z,66.44
2022-09-17T16:17:47.402Z,66.03
2022-09-17T16:20:23.780Z,64.82
2022-09-17T16:22:52.207Z,66.02
2022-09-17T16:25:22.980Z,66.57
2022-09-17T16:28:02.923Z,68.42
2022-09-17T16:30:29.783Z,65.16
2022-09-17T16:32:56.597Z,64.21
2022-09-17T16:35:24.925Z,66.35
2022-09-17T16:37:53.445Z,66.27
2022-09-17T16:40:23.711Z,67.18
2022-09-17T16:42:50.424Z,67.03
2022-09-17T16:45:17.260Z,65.10
2022-09-17T16:47:44.022Z,64.88
2022-09-17T16:50:13.606Z,65.69
2022-09-17T16:52:40.682Z,64.30
2022-09-17T16:55:08.007Z,65.27
2022-09-17T16:57:34.969Z,65.69
2022-09-17T17:00:02.106Z,64.39
2022-09-17T17:02:28.918Z,65.29
2022-09-17T17:04:55.613Z,66.48
2022-09-17T17:07:22.366Z,65.78
2022-09-17T17:09:49.026Z,64.90
2022-09-17T17:12:15.986Z,66.60
2022-09-17T17:14:44.467Z,64.71
2022-09-17T17:17:11.150Z,67.13
2022-09-17T17:19:37.837Z,66.05
2022-09-17T17:22:04.625Z,65.52
2022-09-17T17:24:31.345Z,66.46
2022-09-17T17:26:58.043Z,65.63
2022-09-17T17:29:24.706Z,66.83
2022-09-17T17:31:51.564Z,66.39
2022-09-17T17:34:18.276Z,66.50
2022-09-17T17:36:45.349Z,65.94
2022-09-17T17:39:12.155Z,66.05
2022-09-17T17:41:38.870Z,67.40
2022-09-17T17:44:05.507Z,64.35
2022-09-17T17:46:32.505Z,66.31
2022-09-17T17:48:59.215Z,67.40
2022-09-17T17:51:27.215Z,65.96
2022-09-17T17:53:53.872Z,65.16
2022-09-17T17:56:20.675Z,65.18
2022-09-17T17:58:47.707Z,65.28
2022-09-17T18:01:19.633Z,66.88
2022-09-17T18:03:46.665Z,69.82
2022-09-17T18:06:13.674Z,69.30
2022-09-17T18:08:42.721Z,71.11
2022-09-17T18:11:11.265Z,69.62
2022-09-17T18:13:39.335Z,70.35
2022-09-17T18:16:07.732Z,70.63
2022-09-17T18:18:44.892Z,71.55
2022-09-17T18:21:17.970Z,69.93
2022-09-17T18:23:45.858Z,71.89
2022-09-17T18:26:23.959Z,72.98
2022-09-17T18:28:52.037Z,73.49
2022-09-17T18:31:23.105Z,74.72
2022-09-17T18:33:55.065Z,74.79
2022-09-17T18:36:21.908Z,77.45
2022-09-17T18:38:48.695Z,77.94
2022-09-17T18:41:15.370Z,77.46
2022-09-17T18:43:42.560Z,80.43
2022-09-17T18:46:09.804Z,81.41
2022-09-17T18:48:37.045Z,81.64
2022-09-17T18:51:07.616Z,82.76
2022-09-17T18:53:36.487Z,83.74
2022-09-17T18:56:10.827Z,84.78
2022-09-17T18:58:37.653Z,84.49
2022-09-17T19:01:05.928Z,84.01
2022-09-17T19:03:33.412Z,83.98
2022-09-17T19:06:00.952Z,85.88
2022-09-17T19:08:27.659Z,85.70
2022-09-17T19:10:54.521Z,83.25
2022-09-17T19:13:21.568Z,84.35
2022-09-17T19:15:48.495Z,85.45
2022-09-17T19:18:15.335Z,83.02
2022-09-17T19:20:41.968Z,83.21
2022-09-17T19:23:08.677Z,82.47
2022-09-17T19:25:36.629Z,85.30
2022-09-17T19:28:06.856Z,86.61
2022-09-17T19:30:34.470Z,87.97
2022-09-17T19:33:01.433Z,88.30
2022-09-17T19:35:28.169Z,87.73
2022-09-17T19:37:58.198Z,87.78
2022-09-17T19:40:25.235Z,88.10
2022-09-17T19:42:56.233Z,88.54
2022-09-17T19:45:23.675Z,88.10
2022-09-17T19:47:51.329Z,87.79
2022-09-17T19:50:18.901Z,88.80
2022-09-17T19:52:45.582Z,86.39
2022-09-17T19:55:13.073Z,86.46
2022-09-17T19:57:40.752Z,85.64
2022-09-17T20:00:09.337Z,87.00
2022-09-17T20:02:38.994Z,86.56
2022-09-17T20:05:08.340Z,87.22
2022-09-17T20:07:35.744Z,85.29
2022-09-17T20:10:02.518Z,85.62
2022-09-17T20:12:29.183Z,83.31
2022-09-17T20:14:55.822Z,84.21
2022-09-17T20:17:22.707Z,82.85
2022-09-17T20:19:49.716Z,84.49
2022-09-17T20:22:16.494Z,84.16
2022-09-17T20:24:45.618Z,83.79
2022-09-17T20:27:15.644Z,85.10
2022-09-17T20:29:42.253Z,82.80
2022-09-17T20:32:08.930Z,81.71
2022-09-17T20:34:35.742Z,82.48
2022-09-17T20:37:13.250Z,83.95
2022-09-17T20:39:40.546Z,85.09
2022-09-17T20:42:07.315Z,82.41
2022-09-17T20:44:34.035Z,82.94
2022-09-17T20:47:01.878Z,82.94
2022-09-17T20:49:28.716Z,82.98
2022-09-17T20:51:55.466Z,83.13
2022-09-17T20:54:22.084Z,84.92
2022-09-17T20:56:48.852Z,84.29
2022-09-17T20:59:18.612Z,84.65
2022-09-17T21:01:47.524Z,85.24
2022-09-17T21:04:18.980Z,85.82
2022-09-17T21:06:46.821Z,84.57
2022-09-17T21:09:17.647Z,85.92
2022-09-17T21:11:46.895Z,85.80
2022-09-17T21:14:15.870Z,85.41
2022-09-17T21:16:43.098Z,85.90
2022-09-17T21:19:12.007Z,85.36
2022-09-17T21:21:38.673Z,85.75
2022-09-17T21:24:07.091Z,86.13
2022-09-17T21:26:34.899Z,87.38
2022-09-17T21:29:02.149Z,87.20
2022-09-17T21:31:32.642Z,85.57
2022-09-17T21:34:05.765Z,86.44
2022-09-17T21:36:35.068Z,87.59
2022-09-17T21:39:06.956Z,87.15
2022-09-17T21:41:35.761Z,86.82
2022-09-17T21:44:05.730Z,87.18
2022-09-17T21:46:34.617Z,87.18
2022-09-17T21:49:04.779Z,87.69
2022-09-17T21:51:40.003Z,86.61
2022-09-17T21:54:12.657Z,87.10
2022-09-17T21:56:39.487Z,87.25
2022-09-17T21:59:08.735Z,87.55
2022-09-17T22:01:40.426Z,87.55
2022-09-17T22:04:09.258Z,88.64
2022-09-17T22:06:37.095Z,88.05
2022-09-17T22:09:05.971Z,88.13
2022-09-17T22:11:35.603Z,88.06
2022-09-17T22:14:11.032Z,87.47
2022-09-17T22:16:41.007Z,87.63
2022-09-17T22:19:07.952Z,87.98
2022-09-17T22:21:38.102Z,87.61
2022-09-17T22:24:06.143Z,88.06
2022-09-17T22:26:37.596Z,88.18
2022-09-17T22:29:11.403Z,88.52
2022-09-17T22:31:38.839Z,88.90
2022-09-17T22:34:10.824Z,88.60
2022-09-17T22:36:37.849Z,87.91
2022-09-17T22:39:05.665Z,88.24
2022-09-17T22:41:35.162Z,88.08
2022-09-17T22:44:07.615Z,89.21
2022-09-17T22:46:39.244Z,89.13
2022-09-17T22:49:07.262Z,88.83
2022-09-17T22:51:33.984Z,89.82
2022-09-17T22:54:00.717Z,89.16
2022-09-17T22:56:28.942Z,89.68
2022-09-17T22:58:57.261Z,90.36
2022-09-17T23:01:28.923Z,89.78
2022-09-17T23:03:55.910Z,90.59
2022-09-17T23:06:26.289Z,90.15
2022-09-17T23:08:53.542Z,90.10
2022-09-17T23:11:26.480Z,90.17
2022-09-17T23:13:54.954Z,90.51
2022-09-17T23:16:21.664Z,89.94
2022-09-17T23:18:48.481Z,90.14
2022-09-17T23:21:17.919Z,90.75
2022-09-17T23:23:47.522Z,90.74
2022-09-17T23:26:17.648Z,91.52
2022-09-17T23:28:44.494Z,91.46
2022-09-17T23:31:14.575Z,91.50
2022-09-17T23:33:42.063Z,91.70
2022-09-17T23:36:17.674Z,92.06
2022-09-17T23:38:46.225Z,92.84
2022-09-17T23:41:17.028Z,92.66
2022-09-17T23:43:46.956Z,92.62
2022-09-17T23:46:13.934Z,93.44
2022-09-17T23:48:40.764Z,93.45
2022-09-17T23:51:08.044Z,93.32
2022-09-17T23:53:35.868Z,93.25
2022-09-17T23:56:04.248Z,93.62
2022-09-17T23:58:32.709Z,94.26
